Flight Track Log - Related Links

Times and Time Zones

All times are in EDT time to prevent confusion due to time zone crossing. See the AAY427 flight status page for this flight to view local times or setup timezone preferences in your user account.

Time Position Orientation Groundspeed Altitude Reporting Facility
EDT Latitude Longitude Course Direction KTS MPH feet Rate Location/Type
Fri 04:20:20 PM 46.8825 -96.8172 201° Southwest 165 190 2,300  Level Minneapolis Center
Fri 04:21:22 PM 46.8300 -96.8469 201° Southwest 222 255 4,100 2,177 Climbing Minneapolis Center
Fri 04:22:24 PM 46.7931 -96.9394 240° Southwest 256 295 6,800 2,661 Climbing Minneapolis Center
Fri 04:23:26 PM 46.7619 -97.0436 246° West 265 305 9,600 2,516 Climbing Minneapolis Center
Fri 04:24:28 PM 46.7261 -97.1525 244° Southwest 285 328 12,000 2,371 Climbing Minneapolis Center
Fri 04:25:30 PM 46.6864 -97.2672 243° Southwest 301 346 14,500 1,887 Climbing Minneapolis Center
Fri 04:26:32 PM 46.6425 -97.3886 242° Southwest 329 379 15,900 1,161 Climbing Minneapolis Center
Fri 04:27:34 PM 46.5872 -97.5233 239° Southwest 371 427 16,900 968 Climbing Minneapolis Center
Fri 04:28:36 PM 46.5311 -97.6633 240° Southwest 416 479 17,900 1,403 Climbing Minneapolis Center
Fri 04:29:38 PM 46.4675 -97.8250 240° Southwest 426 490 19,800 1,790 Climbing Minneapolis Center
Fri 04:30:40 PM 46.4044 -97.9775 239° Southwest 437 503 21,600 1,536 Climbing Minneapolis Center
Fri 04:31:43 PM 46.3397 -98.1333 239° Southwest 447 514 23,000 1,296 Climbing Minneapolis Center
Fri 04:32:45 PM 46.2736 -98.2922 239° Southwest 456 525 24,300 1,452 Climbing Minneapolis Center
Fri 04:33:47 PM 46.2078 -98.4556 240° Southwest 466 536 26,000 1,597 Climbing Minneapolis Center
Fri 04:34:49 PM 46.1417 -98.6122 239° Southwest 462 532 27,600 1,548 Climbing Minneapolis Center
Fri 04:35:51 PM 46.0678 -98.7886 239° Southwest 456 525 29,200 1,258 Climbing Minneapolis Center
Fri 04:36:53 PM 46.0022 -98.9411 238° Southwest 452 520 30,200 919 Climbing Minneapolis Center
Fri 04:37:55 PM 45.9378 -99.0969 239° Southwest 452 520 31,100 823 Climbing Minneapolis Center
Fri 04:38:57 PM 45.8725 -99.2506 239° Southwest 452 520 31,900 484 Climbing Minneapolis Center
Fri 04:39:59 PM 45.7936 -99.4344 238° Southwest 452 520 32,100 48 Climbing Minneapolis Center
Fri 04:41:01 PM 45.7281 -99.5864 238° Southwest 451 519 32,000 -48 Descending Minneapolis Center
Fri 04:42:03 PM 45.6611 -99.7386 238° Southwest 452 520 32,000  Level Minneapolis Center
Fri 04:43:05 PM 45.5956 -99.8903 238° Southwest 452 520 32,000  Level Minneapolis Center
Fri 04:44:07 PM 45.5297 -100.0403 238° Southwest 450 518 32,000  Level Minneapolis Center
Fri 04:45:09 PM 45.4497 -100.2233 238° Southwest 455 524 32,000  Level Minneapolis Center
Fri 04:46:11 PM 45.3825 -100.3728 237° Southwest 455 524 32,000  Level Minneapolis Center
Fri 04:47:13 PM 45.3150 -100.5231 237° Southwest 455 524 32,000  Level Minneapolis Center
Fri 04:48:16 PM 45.2475 -100.6744 238° Southwest 457 526 32,000  Level Minneapolis Center
Fri 04:49:17 PM 45.1792 -100.8261 237° Southwest 458 527 32,000  Level Minneapolis Center
Fri 04:50:20 PM 45.0969 -101.0058 237° Southwest 456 525 32,000  Level Minneapolis Center
Fri 04:51:22 PM 45.0286 -101.1567 237° Southwest 455 524 32,000  Level Minneapolis Center
Fri 04:52:24 PM 44.9606 -101.3075 238° Southwest 457 526 32,000  Level Minneapolis Center
Fri 04:53:26 PM 44.8911 -101.4564 237° Southwest 456 525 32,000  Level Minneapolis Center
Fri 04:54:28 PM 44.8217 -101.6067 237° Southwest 457 526 32,000  Level Minneapolis Center
Fri 04:55:30 PM 44.7519 -101.7553 237° Southwest 456 525 32,000  Level Minneapolis Center
Fri 04:56:32 PM 44.6681 -101.9361 237° Southwest 459 528 32,000  Level Minneapolis Center
Fri 04:57:20 PM 44.6128 -102.0553 237° Southwest 457 526 32,000  Level Denver Center
Fri 04:58:22 PM 44.5397 -102.2028 235° Southwest 459 528 32,000  Level Denver Center
Fri 04:59:24 PM 44.4706 -102.3531 237° Southwest 461 531 32,000  Level Denver Center
Fri 05:00:26 PM 44.3992 -102.5006 236° Southwest 459 528 32,000  Level Denver Center
Fri 05:01:28 PM 44.3275 -102.6458 235° Southwest 456 525 32,000  Level Denver Center
Fri 05:02:30 PM 44.2586 -102.7919 237° Southwest 453 521 32,000  Level Denver Center
Fri 05:03:32 PM 44.1742 -102.9658 236° Southwest 451 519 32,000  Level Denver Center
Fri 05:04:34 PM 44.1014 -103.1136 236° Southwest 450 518 32,000  Level Denver Center
Fri 05:05:36 PM 44.0353 -103.2542 237° Southwest 453 521 32,000  Level Denver Center
Fri 05:06:38 PM 43.9553 -103.4156 235° Southwest 454 522 32,000  Level Denver Center
Fri 05:07:40 PM 43.8861 -103.5506 235° Southwest 450 518 32,000  Level Denver Center
Fri 05:08:42 PM 43.8175 -103.6889 236° Southwest 455 524 32,000  Level Denver Center
Fri 05:09:44 PM 43.7361 -103.8481 235° Southwest 455 524 32,000  Level Denver Center
Fri 05:10:46 PM 43.6678 -103.9869 236° Southwest 455 524 32,000  Level Denver Center
Fri 05:11:48 PM 43.5861 -104.1464 235° Southwest 456 525 32,000  Level Denver Center
Fri 05:12:50 PM 43.5172 -104.2825 235° Southwest 455 524 32,000  Level Denver Center
Fri 05:14:04 PM 43.4358 -104.4419 235° Southwest 457 526 32,000  Level Denver Center
Fri 05:15:07 PM 43.3431 -104.6231 235° Southwest 456 525 32,000  Level Denver Center
Fri 05:16:09 PM 43.2736 -104.7581 235° Southwest 455 524 32,000  Level Denver Center
Fri 05:17:11 PM 43.1922 -104.9139 234° Southwest 453 521 32,000  Level Denver Center
Fri 05:18:13 PM 43.1231 -105.0492 235° Southwest 455 524 32,000  Level Denver Center
Fri 05:19:15 PM 43.0406 -105.2047 234° Southwest 455 524 32,000  Level Denver Center
Fri 05:20:17 PM 42.9703 -105.3392 234° Southwest 457 526 32,000  Level Denver Center
Fri 05:21:19 PM 42.8881 -105.4950 234° Southwest 455 524 32,000  Level Denver Center
Fri 05:22:21 PM 42.8156 -105.6289 234° Southwest 459 528 32,000  Level Denver Center
Fri 05:23:23 PM 42.7333 -105.7842 234° Southwest 455 524 32,000  Level Denver Center
Fri 05:24:25 PM 42.6614 -105.9164 234° Southwest 456 525 32,000  Level Denver Center
Fri 05:25:27 PM 42.5786 -106.0694 234° Southwest 453 521 32,000 48 Level Denver Center
Fri 05:26:29 PM 42.5072 -106.2019 234° Southwest 456 525 32,100  Climbing Denver Center
Fri 05:27:31 PM 42.4239 -106.3544 234° Southwest 453 521 32,000 -48 Descending Denver Center
Fri 05:28:33 PM 42.3525 -106.4847 233° Southwest 451 519 32,000  Level Denver Center
Fri 05:29:35 PM 42.2761 -106.6242 234° Southwest 452 520 32,000  Level Denver Center
Fri 05:30:37 PM 42.1922 -106.7764 233° Southwest 451 519 32,000  Level Denver Center
Fri 05:31:39 PM 42.1192 -106.9056 233° Southwest 452 520 32,000  Level Denver Center
Fri 05:32:41 PM 42.0483 -107.0347 234° Southwest 450 518 32,000  Level Denver Center
Fri 05:33:43 PM 41.9639 -107.1864 233° Southwest 454 522 32,000  Level Denver Center
Fri 05:34:45 PM 41.8894 -107.3144 232° Southwest 455 524 32,000  Level Denver Center
Fri 05:35:48 PM 41.8047 -107.4658 233° Southwest 455 524 32,000  Level Denver Center
Fri 05:36:50 PM 41.7317 -107.5947 233° Southwest 454 522 32,000  Level Denver Center
Fri 05:37:52 PM 41.6458 -107.7456 233° Southwest 456 525 32,000  Level Denver Center
Fri 05:38:54 PM 41.5717 -107.8736 232° Southwest 456 525 32,000  Level Denver Center
Fri 05:39:56 PM 41.4847 -108.0242 232° Southwest 458 527 32,000  Level Denver Center
Fri 05:40:58 PM 41.4108 -108.1528 233° Southwest 456 525 32,000  Level Denver Center
Fri 05:42:00 PM 41.3239 -108.3036 233° Southwest 460 529 32,000  Level Denver Center
Fri 05:43:02 PM 41.2486 -108.4328 232° Southwest 459 528 32,000  Level Denver Center
Fri 05:44:04 PM 41.1594 -108.5839 232° Southwest 461 531 32,000  Level Denver Center
Fri 05:44:40 PM 41.1217 -108.6500 233° Southwest 462 532 32,000  Level Salt Lake Center
Fri 05:45:42 PM 41.0325 -108.8000 232° Southwest 461 531 32,000  Level Salt Lake Center
Fri 05:46:44 PM 40.9547 -108.9294 232° Southwest 464 534 32,000 339 Level Salt Lake Center
Fri 05:47:46 PM 40.8656 -109.0794 232° Southwest 463 533 32,700 774 Climbing Salt Lake Center
Fri 05:48:48 PM 40.7919 -109.2064 233° Southwest 460 529 33,600 677 Climbing Salt Lake Center
Fri 05:49:50 PM 40.7036 -109.3492 231° Southwest 454 522 34,100 194 Climbing Salt Lake Center
Fri 05:50:52 PM 40.6297 -109.4742 232° Southwest 454 522 34,000 -48 Descending Salt Lake Center
Fri 05:51:56 PM 40.5417 -109.6197 232° Southwest 456 525 34,000  Level Salt Lake Center
Fri 05:52:56 PM 40.4656 -109.7436 231° Southwest 456 525 34,000  Level Salt Lake Center
Fri 05:53:58 PM 40.3897 -109.8667 231° Southwest 457 526 34,000  Level Salt Lake Center
Fri 05:55:00 PM 40.3025 -110.0097 231° Southwest 453 521 34,000  Level Salt Lake Center
Fri 05:56:02 PM 40.2261 -110.1339 231° Southwest 456 525 34,000  Level Salt Lake Center
Fri 05:57:04 PM 40.1378 -110.2753 231° Southwest 452 520 34,000  Level Salt Lake Center
Fri 05:58:06 PM 40.0622 -110.3978 231° Southwest 454 522 34,000  Level Salt Lake Center
Fri 05:59:08 PM 39.9739 -110.5369 230° Southwest 448 516 34,000  Level Salt Lake Center
Fri 06:00:10 PM 39.8989 -110.6578 231° Southwest 449 517 34,000 48 Level Salt Lake Center
Fri 06:01:12 PM 39.8103 -110.7989 231° Southwest 452 520 34,100  Climbing Salt Lake Center
Fri 06:02:14 PM 39.7344 -110.9194 231° Southwest 451 519 34,000 -48 Descending Salt Lake Center
Fri 06:03:16 PM 39.6453 -111.0603 231° Southwest 454 522 34,000  Level Salt Lake Center
Fri 06:04:18 PM 39.5692 -111.1803 231° Southwest 451 519 34,000  Level Salt Lake Center
Fri 06:05:20 PM 39.4906 -111.3019 230° Southwest 453 521 34,000  Level Salt Lake Center
Fri 06:06:22 PM 39.3942 -111.4522 230° Southwest 453 521 34,000  Level Salt Lake Center
Fri 06:07:24 PM 39.3131 -111.5778 230° Southwest 454 522 34,000  Level Salt Lake Center
Fri 06:08:25 PM 39.2361 -111.6961 230° Southwest 451 519 34,000  Level Salt Lake Center
Fri 06:09:28 PM 39.1553 -111.8200 230° Southwest 453 521 34,000  Level Salt Lake Center
Fri 06:10:29 PM 39.0739 -111.9419 229° Southwest 451 519 34,000  Level Salt Lake Center
Fri 06:11:31 PM 38.9503 -112.0561 216° Southwest 458 527 34,000  Level Salt Lake Center
Fri 06:12:33 PM 38.8453 -112.1469 214° Southwest 457 526 34,000  Level Salt Lake Center
Fri 06:13:35 PM 38.7408 -112.2403 215° Southwest 458 527 34,000  Level Salt Lake Center
Fri 06:14:37 PM 38.6375 -112.3325 215° Southwest 454 522 34,000  Level Salt Lake Center
Fri 06:15:39 PM 38.5331 -112.4228 214° Southwest 454 522 34,000  Level Salt Lake Center
Fri 06:16:41 PM 38.4294 -112.5142 215° Southwest 455 524 34,000 48 Level Salt Lake Center
Fri 06:17:43 PM 38.3042 -112.6225 214° Southwest 456 525 34,100 -435 Climbing Salt Lake Center
Fri 06:18:45 PM 38.2000 -112.7133 214° Southwest 456 525 33,100 -919 Descending Salt Lake Center
Fri 06:19:47 PM 38.0947 -112.8042 214° Southwest 460 529 32,200 -919 Descending Salt Lake Center
Fri 06:20:49 PM 37.9889 -112.8964 214° Southwest 463 533 31,200 -968 Descending Salt Lake Center
Fri 06:21:51 PM 37.8831 -112.9872 214° Southwest 464 534 30,200 -581 Descending Salt Lake Center
Fri 06:22:53 PM 37.7572 -113.0947 214° Southwest 462 532 30,000 -97 Descending Salt Lake Center
Fri 06:23:55 PM 37.6500 -113.1836 213° Southwest 466 536 30,000  Level Salt Lake Center
Fri 06:24:57 PM 37.5436 -113.2772 215° Southwest 471 542 30,000  Level Salt Lake Center
Fri 06:25:58 PM 37.4358 -113.3669 213° Southwest 469 540 30,000  Level Salt Lake Center
Fri 06:27:00 PM 37.3272 -113.4581 214° Southwest 471 542 30,000  Level Salt Lake Center
Fri 06:28:02 PM 37.1978 -113.5683 214° Southwest 471 542 30,000 -46 Level Salt Lake Center
Fri 06:29:11 PM 37.0931 -113.6644 216° Southwest 471 542 29,900 -1,273 Descending Los Angeles Center
Fri 06:30:14 PM 36.9822 -113.8003 224° Southwest 467 537 27,200 -2,592 Descending Los Angeles Center
Fri 06:31:16 PM 36.8967 -113.8983 223° Southwest 457 526 24,500 -2,613 Descending Los Angeles Center
Fri 06:32:18 PM 36.8056 -114.0033 223° Southwest 447 514 21,800 -2,613 Descending Los Angeles Center
Fri 06:33:20 PM 36.7125 -114.1131 223° Southwest 432 497 19,100 -2,468 Descending Los Angeles Center
Fri 06:34:22 PM 36.6300 -114.2089 223° Southwest 412 474 16,700 -2,458 Descending Los Angeles Center
Fri 06:35:44 PM 36.5158 -114.3472 224° Southwest 388 447 13,200 -2,153 Descending Los Angeles Center
Fri 06:36:33 PM 36.4519 -114.4200 223° Southwest 367 422 12,000 -672 Descending Los Angeles Center
Fri 06:37:40 PM 36.3783 -114.4881 217° Southwest 302 348 11,900  Descending Los Angeles Center
Fri 06:38:43 PM 36.3044 -114.4928 183° South 274 315 12,000 -298 Climbing Los Angeles Center
Fri 06:39:41 PM 36.2356 -114.5364 207° Southwest 260 299 11,300 -800 Descending Los Angeles Center
Fri 06:40:43 PM 36.1861 -114.5961 224° Southwest 250 288 10,400 -1,180 Descending Los Angeles Center
Fri 06:41:43 PM 36.1344 -114.6561 223° Southwest 252 290 8,900 -1,125 Descending Los Angeles Center
Fri 06:42:51 PM 36.0817 -114.7167 223° Southwest 245 282 8,000 -621 Descending Los Angeles Center
Fri 06:43:39 PM 36.0733 -114.7806 261° West 236 272 7,700 -726 Descending Los Angeles Center
Fri 06:44:55 PM 36.0744 -114.8575 271° West 207 238 6,500 -1,128 Descending Los Angeles Center
Fri 06:45:52 PM 36.0736 -114.9294 269° West 190 219 5,200 -1,169 Descending Los Angeles Center
Fri 06:46:53 PM 36.0747 -114.9931 271° West 186 214 4,200 -1,031 Descending Los Angeles Center
Fri 06:48:00 PM 36.0742 -115.0597 269° West 171 197 3,000 -891 Descending Los Angeles Center
Fri 06:49:01 PM 36.0742 -115.1103 270° West 140 161 2,300 -689 Descending Los Angeles Center
Fri 06:51:00 PM 36.0667 -115.1500 219° Southwest  Level FlightAware Approximate

Login

Don't have an account? Register now (free) for customized features, flight alerts, and more!